Time;durP1;ratioP1;P1;durP2;ratioP2;P2;SDS_P1;SDS_P2;PMS_P1;PMS_P2;Temp;Humidity;BMP_temperature;BMP_pressure;BME280_temperature;BME280_humidity;BME280_pressure;Samples;Min_cycle;Max_cycle;Signal;HPM_P1;HPM_P2
2022/09/05 00:02:28;;;;;;;9.83;5.37;;;;;;;;;;4996952;28;20172;-67
2022/09/05 00:05:13;;;;;;;7.80;5.60;;;;;;;;;;4997150;28;20177;-68
2022/09/05 00:07:57;;;;;;;7.17;5.00;;;;;;;;;;4996820;28;20184;-67
2022/09/05 00:10:34;;;;;;;6.67;5.00;;;;;;;;;;4996476;28;20207;-68
2022/09/05 00:13:01;;;;;;;6.43;5.10;;;;;;;;;;4979497;28;20181;-67
2022/09/05 00:15:33;;;;;;;5.60;5.10;;;;;;;;;;4996446;28;20168;-67
2022/09/05 00:18:12;;;;;;;9.90;5.17;;;;;;;;;;4996770;28;20617;-68
2022/09/05 00:20:56;;;;;;;7.17;4.97;;;;;;;;;;4996252;28;20192;-67
2022/09/05 00:23:45;;;;;;;7.70;5.30;;;;;;;;;;4996081;28;20288;-67
2022/09/05 00:26:11;;;;;;;8.77;5.47;;;;;;;;;;4986048;28;20275;-68
2022/09/05 00:28:56;;;;;;;8.20;5.00;;;;;;;;;;4995775;28;20267;-66
2022/09/05 00:31:32;;;;;;;8.20;5.83;;;;;;;;;;4978427;28;20216;-67
2022/09/05 00:34:06;;;;;;;6.07;4.80;;;;;;;;;;4978751;28;20625;-68
2022/09/05 00:36:35;;;;;;;6.20;5.50;;;;;;;;;;4996414;28;20169;-67
2022/09/05 00:39:03;;;;;;;6.90;5.17;;;;;;;;;;4995998;28;20254;-68
2022/09/05 00:41:30;;;;;;;6.30;5.57;;;;;;;;;;4978632;28;20268;-67
2022/09/05 00:43:57;;;;;;;7.50;5.57;;;;;;;;;;4996533;28;20187;-68
2022/09/05 00:46:26;;;;;;;9.60;5.60;;;;;;;;;;4978495;28;20207;-67
2022/09/05 00:48:55;;;;;;;6.20;5.20;;;;;;;;;;4996081;28;20283;-67
2022/09/05 00:51:39;;;;;;;12.20;6.00;;;;;;;;;;4996360;28;20291;-67
2022/09/05 00:54:12;;;;;;;6.53;5.27;;;;;;;;;;4978257;28;20561;-67
2022/09/05 00:56:50;;;;;;;9.73;5.73;;;;;;;;;;4995885;28;20618;-67
2022/09/05 00:59:28;;;;;;;7.23;5.80;;;;;;;;;;4995571;28;20271;-68
2022/09/05 01:02:01;;;;;;;8.03;5.50;;;;;;;;;;4995842;28;20188;-68
2022/09/05 01:04:48;;;;;;;11.80;5.10;;;;;;;;;;4995829;28;20180;-67
2022/09/05 01:07:28;;;;;;;10.50;5.63;;;;;;;;;;4994822;28;20184;-68
2022/09/05 01:10:02;;;;;;;6.20;5.00;;;;;;;;;;4995400;28;20208;-67
2022/09/05 01:12:42;;;;;;;7.37;5.40;;;;;;;;;;4995376;28;20290;-68
2022/09/05 01:15:14;;;;;;;6.50;5.23;;;;;;;;;;4995617;28;20161;-67
2022/09/05 01:17:59;;;;;;;8.17;6.13;;;;;;;;;;4995286;28;20248;-67
2022/09/05 01:20:28;;;;;;;13.53;7.27;;;;;;;;;;4995169;28;20215;-68
2022/09/05 01:23:00;;;;;;;16.03;7.47;;;;;;;;;;4977873;28;20189;-67
2022/09/05 01:25:42;;;;;;;13.17;6.43;;;;;;;;;;4995132;28;20258;-67
2022/09/05 01:28:17;;;;;;;10.03;6.30;;;;;;;;;;4995100;28;20184;-67
2022/09/05 01:30:50;;;;;;;9.47;5.20;;;;;;;;;;4995260;28;20543;-67
2022/09/05 01:33:19;;;;;;;10.77;5.53;;;;;;;;;;4977510;28;20199;-67
2022/09/05 01:36:04;;;;;;;8.27;5.90;;;;;;;;;;4977463;28;20526;-68
2022/09/05 01:38:35;;;;;;;7.00;5.00;;;;;;;;;;4994800;28;20611;-67
2022/09/05 01:41:04;;;;;;;7.83;5.47;;;;;;;;;;4995186;28;20169;-68
2022/09/05 01:43:45;;;;;;;7.73;5.40;;;;;;;;;;4994891;28;20555;-67
2022/09/05 01:46:29;;;;;;;6.57;5.07;;;;;;;;;;4977282;28;20630;-67
2022/09/05 01:49:01;;;;;;;7.63;4.60;;;;;;;;;;4977123;28;20204;-67
2022/09/05 01:51:32;;;;;;;7.70;5.07;;;;;;;;;;4994543;28;20218;-67
2022/09/05 01:54:15;;;;;;;5.90;3.93;;;;;;;;;;4977244;28;20239;-67
2022/09/05 01:56:53;;;;;;;6.83;4.30;;;;;;;;;;4977090;28;20169;-67
2022/09/05 01:59:33;;;;;;;7.10;4.20;;;;;;;;;;4976984;28;20211;-67
2022/09/05 02:02:11;;;;;;;4.40;4.03;;;;;;;;;;4994478;28;20636;-67
2022/09/05 02:04:43;;;;;;;4.27;3.70;;;;;;;;;;4994698;28;20176;-68
2022/09/05 02:07:15;;;;;;;6.73;4.00;;;;;;;;;;4994335;28;20176;-67
2022/09/05 02:09:50;;;;;;;4.87;4.37;;;;;;;;;;4976867;28;20208;-67
2022/09/05 02:12:23;;;;;;;5.33;3.90;;;;;;;;;;4976771;28;20298;-68
2022/09/05 02:15:06;;;;;;;6.07;3.80;;;;;;;;;;4976913;28;20169;-68
2022/09/05 02:17:36;;;;;;;4.50;4.10;;;;;;;;;;4975724;28;20179;-67
2022/09/05 02:20:20;;;;;;;4.00;3.63;;;;;;;;;;4976551;28;20306;-68
2022/09/05 02:23:01;;;;;;;5.67;3.70;;;;;;;;;;4994076;28;20219;-67
2022/09/05 02:25:30;;;;;;;4.80;4.10;;;;;;;;;;4994001;28;20180;-67
2022/09/05 02:28:10;;;;;;;4.47;3.90;;;;;;;;;;4993838;28;20184;-67
2022/09/05 02:30:40;;;;;;;4.47;4.07;;;;;;;;;;4994231;28;20169;-68
2022/09/05 02:33:18;;;;;;;4.20;3.80;;;;;;;;;;4976388;28;20768;-67
2022/09/05 02:35:52;;;;;;;7.20;4.47;;;;;;;;;;4993937;28;20176;-67
2022/09/05 02:38:18;;;;;;;4.60;4.13;;;;;;;;;;4993697;28;20537;-67
2022/09/05 02:41:19;;;;;;;5.17;4.40;;;;;;;;;;4993874;28;20184;-67
2022/09/05 02:44:04;;;;;;;4.60;4.20;;;;;;;;;;4915221;29;20226;-68
2022/09/05 02:46:29;;;;;;;4.80;4.13;;;;;;;;;;4987561;28;20196;-68
2022/09/05 02:49:06;;;;;;;6.63;3.73;;;;;;;;;;4993939;28;20204;-68
2022/09/05 02:51:32;;;;;;;5.20;4.00;;;;;;;;;;4976328;28;20204;-67
2022/09/05 02:54:01;;;;;;;8.20;3.90;;;;;;;;;;4994107;28;20183;-67
2022/09/05 02:56:45;;;;;;;5.30;4.67;;;;;;;;;;4993669;28;20279;-67
2022/09/05 02:59:11;;;;;;;6.10;4.30;;;;;;;;;;4993819;28;20551;-67
2022/09/05 03:01:57;;;;;;;6.43;4.40;;;;;;;;;;4976352;28;20670;-68
2022/09/05 03:04:42;;;;;;;6.07;4.43;;;;;;;;;;4976202;28;20240;-68
2022/09/05 03:07:17;;;;;;;4.97;4.20;;;;;;;;;;4993562;28;20259;-67
2022/09/05 03:09:58;;;;;;;8.23;4.63;;;;;;;;;;4995804;28;20204;-68
2022/09/05 03:12:33;;;;;;;5.87;4.47;;;;;;;;;;4979178;28;20204;-67
2022/09/05 03:15:15;;;;;;;12.00;4.97;;;;;;;;;;4993582;28;20169;-69
2022/09/05 03:17:52;;;;;;;9.30;4.63;;;;;;;;;;4993604;28;20184;-68
2022/09/05 03:20:18;;;;;;;5.83;4.67;;;;;;;;;;4993466;28;20700;-68
2022/09/05 03:23:00;;;;;;;5.63;4.40;;;;;;;;;;4976707;28;20176;-67
2022/09/05 03:25:39;;;;;;;4.57;4.07;;;;;;;;;;4993547;28;20164;-67
2022/09/05 03:28:17;;;;;;;6.03;4.27;;;;;;;;;;4993583;28;20173;-67
2022/09/05 03:31:07;;;;;;;5.70;4.30;;;;;;;;;;4997469;28;20542;-67
2022/09/05 03:33:56;;;;;;;8.37;4.40;;;;;;;;;;4997751;28;20169;-67
2022/09/05 03:36:22;;;;;;;8.37;4.83;;;;;;;;;;4996664;28;20195;-67
2022/09/05 03:38:48;;;;;;;5.13;4.27;;;;;;;;;;4996959;28;20196;-67
2022/09/05 03:41:17;;;;;;;5.07;4.10;;;;;;;;;;4997005;28;20215;-67
2022/09/05 03:44:05;;;;;;;4.97;4.30;;;;;;;;;;4997061;28;20180;-67
2022/09/05 03:46:45;;;;;;;8.40;5.03;;;;;;;;;;4997185;28;20175;-67
2022/09/05 03:49:17;;;;;;;4.63;4.10;;;;;;;;;;4996929;28;20676;-67
2022/09/05 03:52:02;;;;;;;10.43;4.50;;;;;;;;;;4996900;28;20203;-67
2022/09/05 03:54:37;;;;;;;4.37;3.97;;;;;;;;;;4996594;28;20226;-67
2022/09/05 03:57:22;;;;;;;4.40;4.00;;;;;;;;;;4997072;28;20621;-67
2022/09/05 04:00:03;;;;;;;4.63;4.20;;;;;;;;;;4996815;28;20255;-67
2022/09/05 04:02:31;;;;;;;10.33;4.80;;;;;;;;;;4996792;28;20176;-67
2022/09/05 04:05:05;;;;;;;5.17;4.43;;;;;;;;;;4979317;28;20299;-67
2022/09/05 04:07:33;;;;;;;7.60;3.90;;;;;;;;;;4979207;28;20263;-67
2022/09/05 04:09:59;;;;;;;6.83;4.30;;;;;;;;;;4996459;28;20201;-67
2022/09/05 04:12:25;;;;;;;6.97;3.80;;;;;;;;;;4979011;28;20211;-67
2022/09/05 04:14:54;;;;;;;5.37;3.97;;;;;;;;;;4979081;28;20180;-67
2022/09/05 04:17:42;;;;;;;10.07;4.27;;;;;;;;;;4978987;28;20626;-67
2022/09/05 04:20:11;;;;;;;7.80;4.10;;;;;;;;;;4996286;28;20269;-67
2022/09/05 04:22:55;;;;;;;7.40;4.50;;;;;;;;;;4996394;28;20181;-67
2022/09/05 04:25:33;;;;;;;6.73;4.30;;;;;;;;;;4996567;28;20180;-67
2022/09/05 04:28:11;;;;;;;4.83;4.03;;;;;;;;;;4996445;28;20172;-67
2022/09/05 04:30:44;;;;;;;5.50;4.30;;;;;;;;;;4996110;28;20188;-67
2022/09/05 04:33:19;;;;;;;4.50;4.10;;;;;;;;;;4978783;28;20656;-67
2022/09/05 04:35:48;;;;;;;4.73;4.07;;;;;;;;;;4978691;28;20711;-67
2022/09/05 04:38:16;;;;;;;4.60;4.10;;;;;;;;;;4978575;28;20184;-67
2022/09/05 04:40:44;;;;;;;5.00;3.97;;;;;;;;;;4994984;28;20178;-67
2022/09/05 04:43:19;;;;;;;7.70;4.20;;;;;;;;;;4995932;28;20215;-67
2022/09/05 04:45:48;;;;;;;4.83;4.17;;;;;;;;;;4995894;28;20188;-67
2022/09/05 04:48:18;;;;;;;5.37;4.27;;;;;;;;;;4978265;28;20184;-67
2022/09/05 04:51:04;;;;;;;4.70;3.70;;;;;;;;;;4996137;28;20184;-67
2022/09/05 04:53:37;;;;;;;7.93;4.10;;;;;;;;;;4978286;28;20192;-67
2022/09/05 04:56:08;;;;;;;5.70;3.97;;;;;;;;;;4978411;28;20180;-67
2022/09/05 04:58:36;;;;;;;4.60;3.83;;;;;;;;;;4995807;28;20540;-67
2022/09/05 05:01:14;;;;;;;4.17;3.77;;;;;;;;;;4979029;28;20302;-67
2022/09/05 05:03:41;;;;;;;4.83;4.00;;;;;;;;;;4996660;28;20183;-67
2022/09/05 05:06:13;;;;;;;4.30;3.83;;;;;;;;;;4996407;28;20184;-67
2022/09/05 05:08:57;;;;;;;4.47;4.07;;;;;;;;;;4978023;28;20201;-67
2022/09/05 05:11:29;;;;;;;4.77;3.93;;;;;;;;;;4983799;28;20238;-67
2022/09/05 05:14:15;;;;;;;7.67;4.20;;;;;;;;;;4977763;28;20235;-68
2022/09/05 05:16:45;;;;;;;7.90;4.70;;;;;;;;;;4994918;28;20191;-67
2022/09/05 05:19:27;;;;;;;5.67;4.10;;;;;;;;;;4977747;28;20262;-67
2022/09/05 05:21:54;;;;;;;11.27;4.57;;;;;;;;;;4995415;28;20234;-68
2022/09/05 05:24:24;;;;;;;6.77;4.07;;;;;;;;;;4995471;28;20272;-67
2022/09/05 05:27:02;;;;;;;7.27;4.27;;;;;;;;;;4977707;28;20184;-67
2022/09/05 05:29:42;;;;;;;8.63;5.13;;;;;;;;;;4995106;28;20704;-67
2022/09/05 05:32:13;;;;;;;5.53;3.90;;;;;;;;;;5013431;23;20262;-69
2022/09/05 05:34:45;;;;;;;8.97;4.43;;;;;;;;;;4995168;28;20169;-69
2022/09/05 05:37:14;;;;;;;6.00;4.27;;;;;;;;;;4995071;28;20180;-70
2022/09/05 05:39:43;;;;;;;7.37;4.70;;;;;;;;;;4994871;28;20227;-69
2022/09/05 05:42:17;;;;;;;8.23;4.17;;;;;;;;;;4995035;28;20600;-69
2022/09/05 05:44:47;;;;;;;5.60;4.37;;;;;;;;;;4977383;28;20180;-70
2022/09/05 05:47:19;;;;;;;8.20;3.80;;;;;;;;;;4994674;28;20696;-70
2022/09/05 05:49:51;;;;;;;4.67;4.13;;;;;;;;;;4994802;28;20242;-69
2022/09/05 05:52:17;;;;;;;7.03;4.10;;;;;;;;;;4994374;28;20295;-70
2022/09/05 05:54:50;;;;;;;5.83;3.90;;;;;;;;;;4994761;28;20204;-72
2022/09/05 05:57:40;;;;;;;9.20;4.13;;;;;;;;;;4996446;28;20227;-69
2022/09/05 06:00:13;;;;;;;5.30;4.17;;;;;;;;;;4977123;28;20625;-69
2022/09/05 06:02:54;;;;;;;11.60;4.27;;;;;;;;;;4994676;28;20198;-69
2022/09/05 06:05:20;;;;;;;6.43;4.10;;;;;;;;;;4994615;28;20234;-71
2022/09/05 06:07:55;;;;;;;8.70;4.40;;;;;;;;;;4994826;28;20583;-72
2022/09/05 06:10:39;;;;;;;5.37;3.77;;;;;;;;;;4994794;28;20231;-70
2022/09/05 06:13:20;;;;;;;7.50;4.57;;;;;;;;;;4994764;28;20216;-72
2022/09/05 06:16:05;;;;;;;7.80;4.60;;;;;;;;;;4995243;28;20183;-72
2022/09/05 06:18:49;;;;;;;6.87;5.03;;;;;;;;;;4994858;28;20202;-71
2022/09/05 06:21:29;;;;;;;5.63;4.57;;;;;;;;;;4977722;28;20287;-71
2022/09/05 06:24:11;;;;;;;5.77;4.10;;;;;;;;;;4995184;28;20165;-72
2022/09/05 06:26:55;;;;;;;9.60;4.53;;;;;;;;;;4977331;28;20180;-69
2022/09/05 06:29:30;;;;;;;6.13;4.40;;;;;;;;;;4994832;28;20203;-69
2022/09/05 06:32:07;;;;;;;5.87;4.13;;;;;;;;;;4994484;28;20219;-69
2022/09/05 06:34:38;;;;;;;7.13;4.17;;;;;;;;;;4994988;28;20621;-71
2022/09/05 06:37:25;;;;;;;6.87;4.20;;;;;;;;;;4995261;28;20181;-71
2022/09/05 06:40:04;;;;;;;8.47;3.93;;;;;;;;;;4977133;28;20263;-72
2022/09/05 06:42:57;;;;;;;7.77;3.37;;;;;;;;;;4995335;28;20203;-77
2022/09/05 06:45:35;;;;;;;5.47;3.93;;;;;;;;;;4995171;28;20196;-70
2022/09/05 06:48:10;;;;;;;6.13;3.57;;;;;;;;;;4977519;28;20188;-71
2022/09/05 06:50:56;;;;;;;3.47;3.13;;;;;;;;;;4995203;28;20168;-71
2022/09/05 06:53:40;;;;;;;10.43;3.53;;;;;;;;;;4994727;28;20649;-71
2022/09/05 06:56:24;;;;;;;5.13;3.30;;;;;;;;;;4977376;28;20188;-69
2022/09/05 06:59:21;;;;;;;8.70;3.27;;;;;;;;;;4976844;28;20212;-69
2022/09/05 07:01:54;;;;;;;12.37;3.70;;;;;;;;;;4977153;28;20695;-69
2022/09/05 07:04:23;;;;;;;5.53;3.73;;;;;;;;;;4978887;28;20176;-69
2022/09/05 07:07:02;;;;;;;5.97;3.43;;;;;;;;;;4999207;28;20218;-73
2022/09/05 07:09:39;;;;;;;6.10;3.60;;;;;;;;;;4981586;28;20699;-71
2022/09/05 07:12:14;;;;;;;4.03;3.63;;;;;;;;;;4981437;28;20224;-69
2022/09/05 07:14:40;;;;;;;9.40;3.90;;;;;;;;;;4998562;28;20167;-71
2022/09/05 07:17:13;;;;;;;5.00;3.60;;;;;;;;;;4999094;28;20544;-69
2022/09/05 07:19:51;;;;;;;4.60;3.50;;;;;;;;;;4981167;28;20169;-70
2022/09/05 07:22:35;;;;;;;6.83;3.97;;;;;;;;;;4998222;28;20207;-69
2022/09/05 07:25:04;;;;;;;7.93;3.73;;;;;;;;;;4998567;28;20212;-69
2022/09/05 07:27:33;;;;;;;5.83;3.70;;;;;;;;;;4980977;28;20184;-69
2022/09/05 07:30:00;;;;;;;8.60;3.77;;;;;;;;;;4981505;28;20618;-70
2022/09/05 07:32:26;;;;;;;8.03;3.90;;;;;;;;;;4998464;28;20222;-69
2022/09/05 07:34:53;;;;;;;5.93;3.53;;;;;;;;;;4980943;28;20244;-71
2022/09/05 07:37:21;;;;;;;5.57;3.60;;;;;;;;;;4998188;28;20653;-69
2022/09/05 07:39:57;;;;;;;5.93;3.83;;;;;;;;;;4980268;28;20215;-69
2022/09/05 07:42:32;;;;;;;5.27;3.83;;;;;;;;;;4979981;28;20210;-69
2022/09/05 07:45:05;;;;;;;9.47;3.90;;;;;;;;;;4997476;28;20656;-71
2022/09/05 07:47:33;;;;;;;7.87;4.07;;;;;;;;;;4997416;28;20157;-70
2022/09/05 07:50:00;;;;;;;6.23;3.60;;;;;;;;;;4997394;28;20180;-70
2022/09/05 07:52:27;;;;;;;5.77;3.33;;;;;;;;;;4996909;28;20275;-69
2022/09/05 07:54:57;;;;;;;8.00;4.17;;;;;;;;;;4980351;28;20188;-70
2022/09/05 07:57:25;;;;;;;6.57;3.20;;;;;;;;;;4979583;28;20595;-69
2022/09/05 07:59:52;;;;;;;6.83;4.00;;;;;;;;;;4996933;28;20177;-69
2022/09/05 08:02:17;;;;;;;11.93;3.73;;;;;;;;;;4996826;28;20238;-69
2022/09/05 08:04:44;;;;;;;7.53;3.40;;;;;;;;;;4996760;28;20180;-74
2022/09/05 08:07:11;;;;;;;9.17;3.57;;;;;;;;;;4996674;28;20188;-70
2022/09/05 08:09:39;;;;;;;4.80;3.43;;;;;;;;;;4996663;28;20184;-70
2022/09/05 08:12:15;;;;;;;4.77;3.60;;;;;;;;;;4996572;28;20274;-69
2022/09/05 08:14:44;;;;;;;10.70;4.53;;;;;;;;;;4996732;28;20227;-69
2022/09/05 08:17:12;;;;;;;7.67;4.40;;;;;;;;;;4996438;28;20173;-70
2022/09/05 08:19:44;;;;;;;9.13;3.80;;;;;;;;;;4996767;28;20173;-72
2022/09/05 08:22:15;;;;;;;6.77;3.00;;;;;;;;;;4996637;28;20346;-71
2022/09/05 08:24:48;;;;;;;6.63;3.80;;;;;;;;;;4996771;28;20644;-71
2022/09/05 08:27:19;;;;;;;6.00;3.47;;;;;;;;;;4978837;28;20196;-70
2022/09/05 08:29:52;;;;;;;10.33;3.50;;;;;;;;;;4996511;28;20191;-70
2022/09/05 08:32:22;;;;;;;3.83;2.90;;;;;;;;;;4996324;28;20216;-71
2022/09/05 08:34:48;;;;;;;6.53;2.90;;;;;;;;;;4996278;28;20183;-70
2022/09/05 08:37:19;;;;;;;6.13;2.80;;;;;;;;;;4996129;28;20172;-70
2022/09/05 08:39:46;;;;;;;3.53;2.70;;;;;;;;;;4996119;28;20176;-71
2022/09/05 08:42:21;;;;;;;3.13;2.60;;;;;;;;;;4996172;28;20204;-71
2022/09/05 08:45:02;;;;;;;3.13;2.60;;;;;;;;;;4996212;28;20180;-71
2022/09/05 08:47:47;;;;;;;4.33;3.17;;;;;;;;;;4978755;28;20181;-69
2022/09/05 08:50:20;;;;;;;3.27;2.67;;;;;;;;;;4995885;28;20186;-69
2022/09/05 08:52:46;;;;;;;5.03;2.50;;;;;;;;;;4995689;28;20213;-68
2022/09/05 08:55:23;;;;;;;3.70;2.50;;;;;;;;;;4996324;28;20184;-72
2022/09/05 08:57:55;;;;;;;5.73;2.73;;;;;;;;;;4978646;28;20223;-73
2022/09/05 09:00:21;;;;;;;4.00;2.77;;;;;;;;;;4997033;28;20167;-72
2022/09/05 09:03:11;;;;;;;3.20;2.50;;;;;;;;;;4996349;28;20645;-72
2022/09/05 09:05:56;;;;;;;3.93;3.53;;;;;;;;;;4995975;28;20227;-71
2022/09/05 09:08:36;;;;;;;4.90;3.30;;;;;;;;;;4995978;28;20184;-71
2022/09/05 09:11:05;;;;;;;3.80;2.87;;;;;;;;;;4977830;28;20176;-71
2022/09/05 09:13:51;;;;;;;10.43;3.90;;;;;;;;;;4995983;28;20267;-71
2022/09/05 09:16:35;;;;;;;5.33;3.13;;;;;;;;;;4995748;28;20164;-71
2022/09/05 09:19:04;;;;;;;3.57;2.50;;;;;;;;;;4977890;28;20551;-72
2022/09/05 09:21:30;;;;;;;7.07;3.00;;;;;;;;;;4978017;28;20212;-70
2022/09/05 09:24:03;;;;;;;7.03;3.70;;;;;;;;;;4995451;28;20191;-70
2022/09/05 09:26:32;;;;;;;7.50;3.37;;;;;;;;;;4995607;28;20233;-71
2022/09/05 09:29:02;;;;;;;6.47;2.97;;;;;;;;;;4978001;28;20255;-72
2022/09/05 09:31:31;;;;;;;4.43;2.93;;;;;;;;;;4995036;28;20212;-70
2022/09/05 09:34:00;;;;;;;4.97;3.10;;;;;;;;;;4995504;28;20165;-71
2022/09/05 09:36:34;;;;;;;5.67;2.40;;;;;;;;;;4995137;28;20180;-71
2022/09/05 09:39:09;;;;;;;5.77;3.07;;;;;;;;;;4977563;28;20620;-71
2022/09/05 09:41:37;;;;;;;7.83;4.03;;;;;;;;;;4995204;28;20199;-71
2022/09/05 09:44:18;;;;;;;10.93;4.57;;;;;;;;;;4994863;28;20649;-71
2022/09/05 09:46:49;;;;;;;6.83;4.17;;;;;;;;;;4994769;28;20177;-71
2022/09/05 09:49:43;;;;;;;5.53;3.53;;;;;;;;;;4995187;28;20167;-71
2022/09/05 09:52:21;;;;;;;3.87;2.70;;;;;;;;;;4995090;28;20239;-69
2022/09/05 09:55:06;;;;;;;4.20;2.73;;;;;;;;;;4995001;28;20181;-69
2022/09/05 09:57:40;;;;;;;8.57;3.93;;;;;;;;;;4995449;28;20231;-72
2022/09/05 10:00:12;;;;;;;4.93;2.50;;;;;;;;;;4994998;28;20220;-70
2022/09/05 10:03:02;;;;;;;3.77;2.83;;;;;;;;;;4994630;28;20192;-70
2022/09/05 10:05:48;;;;;;;4.33;3.30;;;;;;;;;;4995488;28;20176;-70
2022/09/05 10:08:19;;;;;;;8.90;3.47;;;;;;;;;;4994552;28;20181;-71
2022/09/05 10:10:45;;;;;;;7.90;4.13;;;;;;;;;;4995237;28;20173;-71
2022/09/05 10:13:20;;;;;;;8.07;4.57;;;;;;;;;;4994376;28;20580;-71
2022/09/05 10:15:59;;;;;;;11.33;4.20;;;;;;;;;;4994560;28;20199;-72
2022/09/05 10:18:25;;;;;;;17.77;3.97;;;;;;;;;;4994703;28;20506;-71
2022/09/05 10:20:57;;;;;;;4.43;2.90;;;;;;;;;;4994294;28;20204;-71
2022/09/05 10:23:38;;;;;;;8.03;3.53;;;;;;;;;;4994350;28;20199;-68
2022/09/05 10:26:16;;;;;;;5.17;3.30;;;;;;;;;;4977096;28;20193;-69
2022/09/05 10:29:05;;;;;;;3.97;3.30;;;;;;;;;;4994279;28;20271;-69
2022/09/05 10:31:50;;;;;;;10.07;3.13;;;;;;;;;;4976503;28;20220;-69
2022/09/05 10:34:19;;;;;;;7.93;3.20;;;;;;;;;;4994326;28;20183;-68
2022/09/05 10:36:49;;;;;;;5.63;3.00;;;;;;;;;;4976919;28;20191;-72
2022/09/05 10:39:20;;;;;;;6.43;2.60;;;;;;;;;;4993698;28;20211;-69
2022/09/05 10:41:50;;;;;;;5.20;3.37;;;;;;;;;;4994125;28;20200;-70
2022/09/05 10:44:30;;;;;;;3.80;3.10;;;;;;;;;;4994608;28;20547;-69
2022/09/05 10:46:56;;;;;;;6.13;2.30;;;;;;;;;;4994212;28;20267;-70
2022/09/05 10:49:27;;;;;;;3.33;2.77;;;;;;;;;;4993901;28;20657;-70
2022/09/05 10:52:09;;;;;;;3.53;2.57;;;;;;;;;;4993723;28;20208;-70
2022/09/05 10:54:55;;;;;;;4.63;2.47;;;;;;;;;;4994031;28;20168;-70
2022/09/05 10:57:27;;;;;;;8.23;3.30;;;;;;;;;;4963376;28;20220;-70
2022/09/05 11:00:02;;;;;;;4.40;3.27;;;;;;;;;;4976320;28;20239;-70
2022/09/05 11:02:29;;;;;;;4.90;2.70;;;;;;;;;;4976184;28;20207;-70
2022/09/05 11:05:03;;;;;;;5.17;3.00;;;;;;;;;;4993874;28;20177;-70
2022/09/05 11:07:42;;;;;;;3.03;2.37;;;;;;;;;;4993854;28;20182;-70
2022/09/05 11:10:16;;;;;;;2.97;2.20;;;;;;;;;;4993910;28;20182;-69
2022/09/05 11:12:48;;;;;;;6.47;2.80;;;;;;;;;;4976247;28;20212;-70
2022/09/05 11:15:17;;;;;;;3.43;2.40;;;;;;;;;;4976274;28;20267;-69
2022/09/05 11:17:53;;;;;;;3.17;2.40;;;;;;;;;;4993620;28;20550;-69
2022/09/05 11:20:33;;;;;;;7.23;2.80;;;;;;;;;;4993841;28;20168;-69
2022/09/05 11:23:11;;;;;;;3.70;2.27;;;;;;;;;;4993749;28;20204;-69
2022/09/05 11:25:38;;;;;;;6.13;2.40;;;;;;;;;;4993981;28;20165;-69
2022/09/05 11:28:16;;;;;;;2.40;2.20;;;;;;;;;;4993790;28;20177;-69
2022/09/05 11:30:44;;;;;;;6.13;2.60;;;;;;;;;;4994212;28;20187;-70
2022/09/05 11:33:35;;;;;;;2.73;2.40;;;;;;;;;;4993543;28;20219;-69
2022/09/05 11:36:04;;;;;;;4.33;2.30;;;;;;;;;;4994115;28;20215;-69
2022/09/05 11:38:41;;;;;;;3.43;2.40;;;;;;;;;;4976120;28;20207;-69
2022/09/05 11:41:13;;;;;;;4.17;2.50;;;;;;;;;;4993559;28;20219;-69
2022/09/05 11:43:58;;;;;;;5.97;2.40;;;;;;;;;;4993747;28;20180;-69
2022/09/05 11:46:28;;;;;;;6.63;2.60;;;;;;;;;;4993678;28;20187;-69
2022/09/05 11:49:08;;;;;;;3.63;2.10;;;;;;;;;;4993938;28;20187;-69
2022/09/05 11:51:34;;;;;;;4.83;2.60;;;;;;;;;;4997399;28;20576;-69
2022/09/05 11:54:03;;;;;;;4.67;2.57;;;;;;;;;;4979778;28;20180;-69
2022/09/05 11:56:35;;;;;;;2.77;2.43;;;;;;;;;;4997079;28;20246;-69
2022/09/05 11:59:20;;;;;;;3.70;2.40;;;;;;;;;;4979780;28;20180;-70
2022/09/05 12:01:52;;;;;;;2.57;2.37;;;;;;;;;;4997101;28;20311;-69
2022/09/05 12:04:28;;;;;;;3.53;2.50;;;;;;;;;;4998452;28;20664;-69
2022/09/05 12:06:57;;;;;;;5.37;2.47;;;;;;;;;;4998676;28;20196;-69
2022/09/05 12:09:33;;;;;;;5.87;2.60;;;;;;;;;;4998961;28;20177;-70
2022/09/05 12:12:09;;;;;;;3.27;2.50;;;;;;;;;;4999561;28;20208;-70
2022/09/05 12:14:38;;;;;;;9.10;3.30;;;;;;;;;;4998013;28;20196;-70
2022/09/05 12:17:23;;;;;;;5.90;3.27;;;;;;;;;;4997860;28;20176;-71
2022/09/05 12:19:56;;;;;;;6.43;3.23;;;;;;;;;;4998132;28;20213;-70
2022/09/05 12:22:26;;;;;;;4.83;3.60;;;;;;;;;;5003605;23;20692;-65
2022/09/05 12:24:53;;;;;;;4.47;3.60;;;;;;;;;;4978894;28;20227;-65
2022/09/05 12:27:22;;;;;;;6.18;3.08;;;;;;;;;;4977689;28;20567;-65
2022/09/05 12:29:53;;;;;;;8.20;3.10;;;;;;;;;;4978717;28;20184;-65
2022/09/05 12:32:20;;;;;;;9.33;2.90;;;;;;;;;;4978607;28;20708;-65
2022/09/05 12:34:52;;;;;;;4.50;2.80;;;;;;;;;;4996131;28;20645;-65
2022/09/05 12:37:26;;;;;;;13.33;11.90;;;;;;;;;;4996285;28;20246;-66
2022/09/05 12:39:53;;;;;;;6.53;2.30;;;;;;;;;;4978556;28;20181;-66
2022/09/05 12:42:33;;;;;;;5.47;4.80;;;;;;;;;;4996327;28;20205;-66
2022/09/05 12:45:19;;;;;;;4.03;2.67;;;;;;;;;;4994724;28;20383;-66
2022/09/05 12:47:46;;;;;;;4.05;2.55;;;;;;;;;;4978351;28;20173;-65
2022/09/05 12:50:17;;;;;;;3.10;2.47;;;;;;;;;;4995956;28;20165;-66
2022/09/05 12:52:45;;;;;;;5.00;2.90;;;;;;;;;;4995781;28;20208;-66
2022/09/05 12:55:21;;;;;;;3.40;2.97;;;;;;;;;;4978274;28;20177;-66
2022/09/05 12:57:49;;;;;;;3.70;2.78;;;;;;;;;;4995745;28;20187;-66
2022/09/05 13:00:24;;;;;;;5.20;2.40;;;;;;;;;;4995723;28;20328;-66
2022/09/05 13:02:52;;;;;;;5.00;3.37;;;;;;;;;;4977202;28;20196;-65
2022/09/05 13:05:25;;;;;;;4.30;2.33;;;;;;;;;;4978154;28;20181;-66
2022/09/05 13:07:55;;;;;;;3.30;2.63;;;;;;;;;;4978096;28;20651;-65
2022/09/05 13:10:32;;;;;;;3.40;2.57;;;;;;;;;;4995472;28;20169;-66
2022/09/05 13:13:05;;;;;;;4.30;2.53;;;;;;;;;;4995778;28;20204;-66
2022/09/05 13:15:35;;;;;;;4.43;2.42;;;;;;;;;;4978087;28;20659;-65
2022/09/05 13:18:22;;;;;;;3.45;2.30;;;;;;;;;;4978584;28;20663;-66
2022/09/05 13:20:57;;;;;;;5.40;2.50;;;;;;;;;;4996038;28;20677;-65
2022/09/05 13:23:34;;;;;;;3.35;2.50;;;;;;;;;;4996553;28;20627;-66
2022/09/05 13:26:00;;;;;;;3.05;2.75;;;;;;;;;;4998831;28;20171;-65
2022/09/05 13:28:39;;;;;;;6.43;3.00;;;;;;;;;;4995954;28;20176;-66
2022/09/05 13:31:07;;;;;;;3.83;2.60;;;;;;;;;;4996640;28;20251;-65
2022/09/05 13:33:43;;;;;;;3.80;2.60;;;;;;;;;;4997925;28;20196;-65
2022/09/05 13:36:10;;;;;;;4.87;2.60;;;;;;;;;;4980805;28;20610;-65
2022/09/05 13:38:59;;;;;;;3.65;2.30;;;;;;;;;;4998814;28;20179;-65
2022/09/05 13:41:34;;;;;;;6.33;2.80;;;;;;;;;;4987056;28;20204;-65
2022/09/05 13:44:06;;;;;;;2.93;2.47;;;;;;;;;;4995634;28;20199;-66
2022/09/05 13:46:41;;;;;;;3.60;2.67;;;;;;;;;;4977337;28;20179;-65
2022/09/05 13:49:19;;;;;;;2.90;2.60;;;;;;;;;;4977319;28;20255;-65
2022/09/05 13:51:49;;;;;;;4.20;3.80;;;;;;;;;;4994541;28;20220;-65
2022/09/05 13:54:37;;;;;;;4.03;2.25;;;;;;;;;;4994849;28;20025;-66
2022/09/05 13:57:16;;;;;;;4.20;2.90;;;;;;;;;;4994776;28;20169;-66
2022/09/05 14:00:02;;;;;;;4.05;2.80;;;;;;;;;;4978168;28;20200;-66
2022/09/05 14:02:46;;;;;;;4.40;2.28;;;;;;;;;;4994472;28;20288;-66
2022/09/05 14:05:25;;;;;;;6.28;2.20;;;;;;;;;;4994398;28;20184;-66
2022/09/05 14:08:01;;;;;;;3.13;2.50;;;;;;;;;;4994539;28;20188;-66
2022/09/05 14:10:49;;;;;;;2.92;2.40;;;;;;;;;;4994361;28;20176;-66
2022/09/05 14:13:28;;;;;;;3.25;2.67;;;;;;;;;;4976623;28;20263;-66
2022/09/05 14:15:59;;;;;;;3.15;2.60;;;;;;;;;;4995074;28;20477;-66
2022/09/05 14:18:25;;;;;;;5.65;2.50;;;;;;;;;;4994123;28;20176;-66
2022/09/05 14:24:04;;;;;;;2.95;2.60;;;;;;;;;;4950843;28;20219;-66
2022/09/05 14:26:32;;;;;;;2.75;2.47;;;;;;;;;;4994323;28;20177;-66
2022/09/05 14:29:13;;;;;;;5.93;2.50;;;;;;;;;;4994074;28;20645;-66
2022/09/05 14:31:51;;;;;;;7.13;2.30;;;;;;;;;;4993983;28;20214;-66
2022/09/05 14:34:37;;;;;;;4.40;2.30;;;;;;;;;;4994126;28;20172;-67
2022/09/05 14:37:03;;;;;;;3.05;2.58;;;;;;;;;;4994219;28;20168;-66
2022/09/05 14:39:47;;;;;;;7.32;2.88;;;;;;;;;;4994392;28;20184;-67
2022/09/05 14:42:31;;;;;;;4.15;2.70;;;;;;;;;;4994072;28;20193;-66
2022/09/05 14:44:57;;;;;;;4.97;2.45;;;;;;;;;;4993916;28;20157;-64
2022/09/05 14:47:26;;;;;;;7.65;2.80;;;;;;;;;;4994014;28;20595;-66
2022/09/05 14:50:04;;;;;;;6.72;2.42;;;;;;;;;;4976421;28;20289;-66
2022/09/05 14:52:32;;;;;;;4.05;2.40;;;;;;;;;;4976297;28;20222;-66
2022/09/05 14:55:00;;;;;;;7.10;2.72;;;;;;;;;;4993987;28;20704;-66
2022/09/05 14:57:28;;;;;;;3.65;2.40;;;;;;;;;;4994211;28;20183;-66
2022/09/05 14:59:56;;;;;;;8.65;2.95;;;;;;;;;;4976180;28;20176;-66
2022/09/05 15:02:34;;;;;;;2.72;2.53;;;;;;;;;;4993600;28;20234;-65
2022/09/05 15:05:12;;;;;;;5.63;2.50;;;;;;;;;;4994001;28;20180;-66
2022/09/05 15:07:45;;;;;;;3.30;2.25;;;;;;;;;;4993616;28;20180;-66
2022/09/05 15:10:20;;;;;;;2.55;2.30;;;;;;;;;;4993623;28;20181;-66
2022/09/05 15:13:01;;;;;;;4.15;2.63;;;;;;;;;;4975950;28;20226;-66
2022/09/05 15:15:29;;;;;;;5.90;2.65;;;;;;;;;;4976146;28;20177;-66
2022/09/05 15:18:03;;;;;;;5.72;2.60;;;;;;;;;;4993884;28;20187;-67
2022/09/05 15:20:40;;;;;;;2.92;2.60;;;;;;;;;;4993604;28;20180;-66
2022/09/05 15:23:10;;;;;;;2.28;2.10;;;;;;;;;;4975914;28;20725;-66
2022/09/05 15:25:45;;;;;;;2.53;2.30;;;;;;;;;;4995613;28;20180;-66
2022/09/05 15:28:31;;;;;;;5.00;2.50;;;;;;;;;;4997390;28;20678;-66
2022/09/05 15:30:58;;;;;;;2.63;2.22;;;;;;;;;;4997887;28;20647;-66
2022/09/05 15:33:27;;;;;;;2.38;2.17;;;;;;;;;;4997128;28;20216;-66